sensor_id;sensor_type;location;lat;lon;timestamp;P1;durP1;ratioP1;P2;durP2;ratioP2
74833;SDS011;63361;52.384;20.930;2024-03-07T00:00:28;25.65;;;10.20;;
74833;SDS011;63361;52.384;20.930;2024-03-07T00:02:53;20.53;;;10.77;;
74833;SDS011;63361;52.384;20.930;2024-03-07T00:05:19;22.03;;;10.37;;
74833;SDS011;63361;52.384;20.930;2024-03-07T00:07:47;20.17;;;9.93;;
74833;SDS011;63361;52.384;20.930;2024-03-07T00:10:13;28.52;;;10.90;;
74833;SDS011;63361;52.384;20.930;2024-03-07T00:12:40;22.05;;;10.07;;
74833;SDS011;63361;52.384;20.930;2024-03-07T00:15:12;21.97;;;10.47;;
74833;SDS011;63361;52.384;20.930;2024-03-07T00:17:38;24.88;;;11.05;;
74833;SDS011;63361;52.384;20.930;2024-03-07T00:20:04;25.73;;;11.17;;
74833;SDS011;63361;52.384;20.930;2024-03-07T00:22:33;24.88;;;12.05;;
74833;SDS011;63361;52.384;20.930;2024-03-07T00:25:00;29.40;;;12.63;;
74833;SDS011;63361;52.384;20.930;2024-03-07T00:27:26;23.90;;;11.57;;
74833;SDS011;63361;52.384;20.930;2024-03-07T00:29:52;33.23;;;12.50;;
74833;SDS011;63361;52.384;20.930;2024-03-07T00:32:22;24.73;;;11.32;;
74833;SDS011;63361;52.384;20.930;2024-03-07T00:34:48;22.33;;;10.10;;
74833;SDS011;63361;52.384;20.930;2024-03-07T00:37:18;24.67;;;11.35;;
74833;SDS011;63361;52.384;20.930;2024-03-07T00:39:43;25.80;;;9.97;;
74833;SDS011;63361;52.384;20.930;2024-03-07T00:42:09;27.23;;;10.90;;
74833;SDS011;63361;52.384;20.930;2024-03-07T00:44:34;21.53;;;10.33;;
74833;SDS011;63361;52.384;20.930;2024-03-07T00:47:00;27.67;;;11.33;;
74833;SDS011;63361;52.384;20.930;2024-03-07T00:49:27;25.45;;;11.50;;
74833;SDS011;63361;52.384;20.930;2024-03-07T00:51:53;26.50;;;11.70;;
74833;SDS011;63361;52.384;20.930;2024-03-07T00:54:18;24.57;;;11.17;;
74833;SDS011;63361;52.384;20.930;2024-03-07T00:56:44;23.33;;;10.87;;
74833;SDS011;63361;52.384;20.930;2024-03-07T00:59:09;23.00;;;10.45;;
74833;SDS011;63361;52.384;20.930;2024-03-07T01:01:34;24.50;;;10.07;;
74833;SDS011;63361;52.384;20.930;2024-03-07T01:04:03;25.05;;;11.45;;
74833;SDS011;63361;52.384;20.930;2024-03-07T01:06:28;26.07;;;10.37;;
74833;SDS011;63361;52.384;20.930;2024-03-07T01:08:53;26.03;;;12.07;;
74833;SDS011;63361;52.384;20.930;2024-03-07T01:11:19;29.47;;;11.97;;
74833;SDS011;63361;52.384;20.930;2024-03-07T01:13:44;26.00;;;11.10;;
74833;SDS011;63361;52.384;20.930;2024-03-07T01:16:10;25.13;;;10.63;;
74833;SDS011;63361;52.384;20.930;2024-03-07T01:18:35;27.27;;;11.40;;
74833;SDS011;63361;52.384;20.930;2024-03-07T01:21:03;24.20;;;10.13;;
74833;SDS011;63361;52.384;20.930;2024-03-07T01:23:30;21.10;;;11.30;;
74833;SDS011;63361;52.384;20.930;2024-03-07T01:25:56;23.97;;;10.73;;
74833;SDS011;63361;52.384;20.930;2024-03-07T01:28:22;24.33;;;10.27;;
74833;SDS011;63361;52.384;20.930;2024-03-07T01:30:49;32.38;;;11.23;;
74833;SDS011;63361;52.384;20.930;2024-03-07T01:33:15;23.27;;;10.70;;
74833;SDS011;63361;52.384;20.930;2024-03-07T01:35:41;24.40;;;11.23;;
74833;SDS011;63361;52.384;20.930;2024-03-07T01:38:06;26.57;;;10.70;;
74833;SDS011;63361;52.384;20.930;2024-03-07T01:40:33;28.92;;;10.77;;
74833;SDS011;63361;52.384;20.930;2024-03-07T01:42:59;29.57;;;11.50;;
74833;SDS011;63361;52.384;20.930;2024-03-07T01:45:27;26.10;;;11.45;;
74833;SDS011;63361;52.384;20.930;2024-03-07T01:47:52;26.60;;;11.67;;
74833;SDS011;63361;52.384;20.930;2024-03-07T01:50:18;24.75;;;11.10;;
74833;SDS011;63361;52.384;20.930;2024-03-07T01:52:43;24.03;;;10.97;;
74833;SDS011;63361;52.384;20.930;2024-03-07T01:55:09;25.17;;;10.90;;
74833;SDS011;63361;52.384;20.930;2024-03-07T01:57:38;26.40;;;11.93;;
74833;SDS011;63361;52.384;20.930;2024-03-07T02:00:04;22.48;;;9.60;;
74833;SDS011;63361;52.384;20.930;2024-03-07T02:02:31;28.33;;;11.40;;
74833;SDS011;63361;52.384;20.930;2024-03-07T02:04:57;23.67;;;11.63;;
74833;SDS011;63361;52.384;20.930;2024-03-07T02:07:23;28.98;;;11.57;;
74833;SDS011;63361;52.384;20.930;2024-03-07T02:09:48;28.30;;;11.43;;
74833;SDS011;63361;52.384;20.930;2024-03-07T02:12:13;28.17;;;12.18;;
74833;SDS011;63361;52.384;20.930;2024-03-07T02:14:39;29.50;;;11.37;;
74833;SDS011;63361;52.384;20.930;2024-03-07T02:17:04;33.53;;;13.13;;
74833;SDS011;63361;52.384;20.930;2024-03-07T02:19:29;35.17;;;12.87;;
74833;SDS011;63361;52.384;20.930;2024-03-07T02:21:57;31.60;;;13.05;;
74833;SDS011;63361;52.384;20.930;2024-03-07T02:24:22;32.73;;;13.03;;
74833;SDS011;63361;52.384;20.930;2024-03-07T02:26:48;31.05;;;13.90;;
74833;SDS011;63361;52.384;20.930;2024-03-07T02:29:14;28.83;;;12.33;;
74833;SDS011;63361;52.384;20.930;2024-03-07T02:31:39;29.47;;;13.43;;
74833;SDS011;63361;52.384;20.930;2024-03-07T02:34:06;24.58;;;11.88;;
74833;SDS011;63361;52.384;20.930;2024-03-07T02:36:35;22.02;;;10.20;;
74833;SDS011;63361;52.384;20.930;2024-03-07T02:39:00;30.93;;;12.67;;
74833;SDS011;63361;52.384;20.930;2024-03-07T02:41:26;27.40;;;12.07;;
74833;SDS011;63361;52.384;20.930;2024-03-07T02:43:52;25.85;;;11.75;;
74833;SDS011;63361;52.384;20.930;2024-03-07T02:46:18;25.13;;;11.73;;
74833;SDS011;63361;52.384;20.930;2024-03-07T02:48:44;24.07;;;10.47;;
74833;SDS011;63361;52.384;20.930;2024-03-07T02:51:09;25.98;;;11.27;;
74833;SDS011;63361;52.384;20.930;2024-03-07T02:53:36;26.15;;;10.95;;
74833;SDS011;63361;52.384;20.930;2024-03-07T02:56:02;22.15;;;11.05;;
74833;SDS011;63361;52.384;20.930;2024-03-07T02:58:29;22.95;;;11.23;;
74833;SDS011;63361;52.384;20.930;2024-03-07T03:00:57;25.80;;;11.10;;
74833;SDS011;63361;52.384;20.930;2024-03-07T03:03:26;32.28;;;11.52;;
74833;SDS011;63361;52.384;20.930;2024-03-07T03:05:51;22.73;;;11.30;;
74833;SDS011;63361;52.384;20.930;2024-03-07T03:08:17;23.77;;;10.17;;
74833;SDS011;63361;52.384;20.930;2024-03-07T03:10:42;20.67;;;8.98;;
74833;SDS011;63361;52.384;20.930;2024-03-07T03:13:09;23.73;;;11.02;;
74833;SDS011;63361;52.384;20.930;2024-03-07T03:15:35;23.70;;;10.05;;
74833;SDS011;63361;52.384;20.930;2024-03-07T03:18:02;24.25;;;10.05;;
74833;SDS011;63361;52.384;20.930;2024-03-07T03:20:28;24.95;;;10.60;;
74833;SDS011;63361;52.384;20.930;2024-03-07T03:23:00;24.33;;;10.63;;
74833;SDS011;63361;52.384;20.930;2024-03-07T03:25:28;27.08;;;10.75;;
74833;SDS011;63361;52.384;20.930;2024-03-07T03:27:53;25.13;;;10.27;;
74833;SDS011;63361;52.384;20.930;2024-03-07T03:30:18;25.37;;;11.77;;
74833;SDS011;63361;52.384;20.930;2024-03-07T03:32:47;24.23;;;11.50;;
74833;SDS011;63361;52.384;20.930;2024-03-07T03:35:16;18.42;;;8.60;;
74833;SDS011;63361;52.384;20.930;2024-03-07T03:37:41;25.10;;;11.73;;
74833;SDS011;63361;52.384;20.930;2024-03-07T03:40:08;27.38;;;11.32;;
74833;SDS011;63361;52.384;20.930;2024-03-07T03:42:38;21.05;;;11.13;;
74833;SDS011;63361;52.384;20.930;2024-03-07T03:45:04;17.75;;;9.02;;
74833;SDS011;63361;52.384;20.930;2024-03-07T03:47:50;21.00;;;9.30;;
74833;SDS011;63361;52.384;20.930;2024-03-07T03:50:16;20.47;;;9.47;;
74833;SDS011;63361;52.384;20.930;2024-03-07T03:52:42;24.42;;;9.60;;
74833;SDS011;63361;52.384;20.930;2024-03-07T03:55:08;23.77;;;10.77;;
74833;SDS011;63361;52.384;20.930;2024-03-07T03:57:40;22.25;;;9.80;;
74833;SDS011;63361;52.384;20.930;2024-03-07T04:00:08;19.90;;;9.77;;
74833;SDS011;63361;52.384;20.930;2024-03-07T04:02:45;22.20;;;9.88;;
74833;SDS011;63361;52.384;20.930;2024-03-07T04:05:14;24.42;;;10.73;;
74833;SDS011;63361;52.384;20.930;2024-03-07T04:07:42;22.85;;;9.27;;
74833;SDS011;63361;52.384;20.930;2024-03-07T04:10:07;20.27;;;10.23;;
74833;SDS011;63361;52.384;20.930;2024-03-07T04:12:34;19.80;;;9.57;;
74833;SDS011;63361;52.384;20.930;2024-03-07T04:15:00;20.92;;;8.98;;
74833;SDS011;63361;52.384;20.930;2024-03-07T04:17:26;27.10;;;10.73;;
74833;SDS011;63361;52.384;20.930;2024-03-07T04:19:51;21.55;;;11.38;;
74833;SDS011;63361;52.384;20.930;2024-03-07T04:22:17;26.77;;;10.63;;
74833;SDS011;63361;52.384;20.930;2024-03-07T04:24:44;22.77;;;11.35;;
74833;SDS011;63361;52.384;20.930;2024-03-07T04:27:10;17.50;;;8.60;;
74833;SDS011;63361;52.384;20.930;2024-03-07T04:29:36;18.15;;;9.30;;
74833;SDS011;63361;52.384;20.930;2024-03-07T04:32:01;22.57;;;10.37;;
74833;SDS011;63361;52.384;20.930;2024-03-07T04:34:28;26.77;;;10.77;;
74833;SDS011;63361;52.384;20.930;2024-03-07T04:36:57;20.77;;;9.27;;
74833;SDS011;63361;52.384;20.930;2024-03-07T04:39:26;22.33;;;10.18;;
74833;SDS011;63361;52.384;20.930;2024-03-07T04:42:01;26.52;;;11.18;;
74833;SDS011;63361;52.384;20.930;2024-03-07T04:44:30;19.80;;;9.20;;
74833;SDS011;63361;52.384;20.930;2024-03-07T04:46:57;25.10;;;10.48;;
74833;SDS011;63361;52.384;20.930;2024-03-07T04:49:25;20.30;;;9.67;;
74833;SDS011;63361;52.384;20.930;2024-03-07T04:51:52;27.92;;;11.27;;
74833;SDS011;63361;52.384;20.930;2024-03-07T04:54:18;20.55;;;9.70;;
74833;SDS011;63361;52.384;20.930;2024-03-07T04:56:48;19.95;;;8.77;;
74833;SDS011;63361;52.384;20.930;2024-03-07T04:59:15;28.42;;;11.32;;
74833;SDS011;63361;52.384;20.930;2024-03-07T05:01:42;19.83;;;10.53;;
74833;SDS011;63361;52.384;20.930;2024-03-07T05:04:08;20.90;;;11.23;;
74833;SDS011;63361;52.384;20.930;2024-03-07T05:06:34;26.42;;;11.25;;
74833;SDS011;63361;52.384;20.930;2024-03-07T05:09:03;24.33;;;10.27;;
74833;SDS011;63361;52.384;20.930;2024-03-07T05:11:32;20.55;;;10.00;;
74833;SDS011;63361;52.384;20.930;2024-03-07T05:13:58;30.00;;;11.32;;
74833;SDS011;63361;52.384;20.930;2024-03-07T05:16:24;24.17;;;10.80;;
74833;SDS011;63361;52.384;20.930;2024-03-07T05:18:50;23.65;;;10.25;;
74833;SDS011;63361;52.384;20.930;2024-03-07T05:21:17;25.13;;;9.48;;
74833;SDS011;63361;52.384;20.930;2024-03-07T05:24:01;26.58;;;10.82;;
74833;SDS011;63361;52.384;20.930;2024-03-07T05:26:28;24.60;;;10.23;;
74833;SDS011;63361;52.384;20.930;2024-03-07T05:28:54;22.17;;;10.63;;
74833;SDS011;63361;52.384;20.930;2024-03-07T05:31:20;24.52;;;12.18;;
74833;SDS011;63361;52.384;20.930;2024-03-07T05:33:46;26.57;;;10.97;;
74833;SDS011;63361;52.384;20.930;2024-03-07T05:36:12;21.42;;;10.32;;
74833;SDS011;63361;52.384;20.930;2024-03-07T05:38:43;25.35;;;9.35;;
74833;SDS011;63361;52.384;20.930;2024-03-07T05:41:09;24.97;;;11.23;;
74833;SDS011;63361;52.384;20.930;2024-03-07T05:43:36;15.32;;;7.13;;
74833;SDS011;63361;52.384;20.930;2024-03-07T05:46:02;27.70;;;10.98;;
74833;SDS011;63361;52.384;20.930;2024-03-07T05:48:28;17.95;;;7.90;;
74833;SDS011;63361;52.384;20.930;2024-03-07T05:50:53;20.40;;;9.57;;
74833;SDS011;63361;52.384;20.930;2024-03-07T05:53:19;19.73;;;9.88;;
74833;SDS011;63361;52.384;20.930;2024-03-07T05:55:44;26.33;;;11.48;;
74833;SDS011;63361;52.384;20.930;2024-03-07T05:58:10;27.37;;;10.07;;
74833;SDS011;63361;52.384;20.930;2024-03-07T06:00:36;21.30;;;9.95;;
74833;SDS011;63361;52.384;20.930;2024-03-07T06:03:03;26.63;;;10.73;;
74833;SDS011;63361;52.384;20.930;2024-03-07T06:05:30;19.37;;;8.37;;
74833;SDS011;63361;52.384;20.930;2024-03-07T06:07:55;20.20;;;9.55;;
74833;SDS011;63361;52.384;20.930;2024-03-07T06:10:21;26.70;;;9.48;;
74833;SDS011;63361;52.384;20.930;2024-03-07T06:12:50;26.53;;;10.23;;
74833;SDS011;63361;52.384;20.930;2024-03-07T06:15:15;21.48;;;9.63;;
74833;SDS011;63361;52.384;20.930;2024-03-07T06:17:41;20.27;;;10.33;;
74833;SDS011;63361;52.384;20.930;2024-03-07T06:20:08;21.48;;;8.95;;
74833;SDS011;63361;52.384;20.930;2024-03-07T06:22:47;19.00;;;7.88;;
74833;SDS011;63361;52.384;20.930;2024-03-07T06:25:17;19.65;;;8.60;;
74833;SDS011;63361;52.384;20.930;2024-03-07T06:27:46;19.73;;;9.53;;
74833;SDS011;63361;52.384;20.930;2024-03-07T06:30:17;15.48;;;7.93;;
74833;SDS011;63361;52.384;20.930;2024-03-07T06:32:43;22.73;;;8.32;;
74833;SDS011;63361;52.384;20.930;2024-03-07T06:35:09;17.23;;;8.60;;
74833;SDS011;63361;52.384;20.930;2024-03-07T06:37:35;18.15;;;8.10;;
74833;SDS011;63361;52.384;20.930;2024-03-07T06:40:01;16.77;;;7.37;;
74833;SDS011;63361;52.384;20.930;2024-03-07T06:42:30;20.70;;;8.07;;
74833;SDS011;63361;52.384;20.930;2024-03-07T06:44:57;20.45;;;8.50;;
74833;SDS011;63361;52.384;20.930;2024-03-07T06:47:23;19.47;;;9.20;;
74833;SDS011;63361;52.384;20.930;2024-03-07T06:49:48;17.23;;;7.50;;
74833;SDS011;63361;52.384;20.930;2024-03-07T06:52:14;15.57;;;6.47;;
74833;SDS011;63361;52.384;20.930;2024-03-07T06:54:40;17.50;;;7.28;;
74833;SDS011;63361;52.384;20.930;2024-03-07T06:57:05;17.07;;;7.53;;
74833;SDS011;63361;52.384;20.930;2024-03-07T06:59:31;17.63;;;8.33;;
74833;SDS011;63361;52.384;20.930;2024-03-07T07:01:56;16.73;;;7.67;;
74833;SDS011;63361;52.384;20.930;2024-03-07T07:04:23;15.38;;;6.75;;
74833;SDS011;63361;52.384;20.930;2024-03-07T07:06:50;15.10;;;7.28;;
74833;SDS011;63361;52.384;20.930;2024-03-07T07:09:15;12.27;;;5.30;;
74833;SDS011;63361;52.384;20.930;2024-03-07T07:11:43;12.38;;;5.97;;
74833;SDS011;63361;52.384;20.930;2024-03-07T07:14:10;20.23;;;8.70;;
74833;SDS011;63361;52.384;20.930;2024-03-07T07:16:36;15.68;;;6.88;;
74833;SDS011;63361;52.384;20.930;2024-03-07T07:19:06;15.93;;;7.53;;
74833;SDS011;63361;52.384;20.930;2024-03-07T07:21:32;11.93;;;5.87;;
74833;SDS011;63361;52.384;20.930;2024-03-07T07:23:57;18.52;;;6.45;;
74833;SDS011;63361;52.384;20.930;2024-03-07T07:26:23;16.77;;;6.40;;
74833;SDS011;63361;52.384;20.930;2024-03-07T07:28:49;20.80;;;8.25;;
74833;SDS011;63361;52.384;20.930;2024-03-07T07:31:15;12.90;;;6.47;;
74833;SDS011;63361;52.384;20.930;2024-03-07T07:33:40;13.85;;;6.25;;
74833;SDS011;63361;52.384;20.930;2024-03-07T07:36:06;13.77;;;6.37;;
74833;SDS011;63361;52.384;20.930;2024-03-07T07:38:32;13.97;;;5.50;;
74833;SDS011;63361;52.384;20.930;2024-03-07T07:40:57;13.73;;;5.63;;
74833;SDS011;63361;52.384;20.930;2024-03-07T07:43:23;11.73;;;6.25;;
74833;SDS011;63361;52.384;20.930;2024-03-07T07:45:49;12.03;;;5.17;;
74833;SDS011;63361;52.384;20.930;2024-03-07T07:48:14;13.73;;;6.63;;
74833;SDS011;63361;52.384;20.930;2024-03-07T07:50:40;13.63;;;6.00;;
74833;SDS011;63361;52.384;20.930;2024-03-07T07:53:05;12.63;;;6.13;;
74833;SDS011;63361;52.384;20.930;2024-03-07T07:55:34;11.27;;;5.60;;
74833;SDS011;63361;52.384;20.930;2024-03-07T07:58:00;11.10;;;5.32;;
74833;SDS011;63361;52.384;20.930;2024-03-07T08:00:29;12.48;;;5.95;;
74833;SDS011;63361;52.384;20.930;2024-03-07T08:05:21;12.23;;;5.65;;
74833;SDS011;63361;52.384;20.930;2024-03-07T08:07:52;11.87;;;5.83;;
74833;SDS011;63361;52.384;20.930;2024-03-07T08:10:20;10.50;;;5.35;;
74833;SDS011;63361;52.384;20.930;2024-03-07T08:12:45;10.75;;;4.70;;
74833;SDS011;63361;52.384;20.930;2024-03-07T08:15:12;10.60;;;5.55;;
74833;SDS011;63361;52.384;20.930;2024-03-07T08:17:41;12.07;;;5.33;;
74833;SDS011;63361;52.384;20.930;2024-03-07T08:20:14;9.60;;;4.38;;
74833;SDS011;63361;52.384;20.930;2024-03-07T08:22:40;9.95;;;4.65;;
74833;SDS011;63361;52.384;20.930;2024-03-07T08:25:07;11.48;;;4.72;;
74833;SDS011;63361;52.384;20.930;2024-03-07T08:27:37;11.10;;;5.15;;
74833;SDS011;63361;52.384;20.930;2024-03-07T08:30:08;10.90;;;4.87;;
74833;SDS011;63361;52.384;20.930;2024-03-07T08:32:41;10.63;;;4.50;;
74833;SDS011;63361;52.384;20.930;2024-03-07T08:35:09;10.32;;;4.68;;
74833;SDS011;63361;52.384;20.930;2024-03-07T08:37:36;7.93;;;4.00;;
74833;SDS011;63361;52.384;20.930;2024-03-07T08:40:03;8.80;;;4.35;;
74833;SDS011;63361;52.384;20.930;2024-03-07T08:42:30;6.40;;;3.27;;
74833;SDS011;63361;52.384;20.930;2024-03-07T08:44:57;9.73;;;4.10;;
74833;SDS011;63361;52.384;20.930;2024-03-07T08:47:23;10.10;;;4.32;;
74833;SDS011;63361;52.384;20.930;2024-03-07T08:49:48;9.13;;;4.43;;
74833;SDS011;63361;52.384;20.930;2024-03-07T08:52:14;8.47;;;3.70;;
74833;SDS011;63361;52.384;20.930;2024-03-07T08:54:39;8.00;;;3.43;;
74833;SDS011;63361;52.384;20.930;2024-03-07T08:57:04;8.30;;;3.77;;
74833;SDS011;63361;52.384;20.930;2024-03-07T08:59:32;8.55;;;3.55;;
74833;SDS011;63361;52.384;20.930;2024-03-07T09:01:58;8.05;;;3.95;;
74833;SDS011;63361;52.384;20.930;2024-03-07T09:04:26;10.15;;;4.18;;
74833;SDS011;63361;52.384;20.930;2024-03-07T09:06:54;8.27;;;3.60;;
74833;SDS011;63361;52.384;20.930;2024-03-07T09:09:19;8.75;;;3.67;;
74833;SDS011;63361;52.384;20.930;2024-03-07T09:11:45;7.03;;;3.33;;
74833;SDS011;63361;52.384;20.930;2024-03-07T09:14:12;7.65;;;3.38;;
74833;SDS011;63361;52.384;20.930;2024-03-07T09:16:37;7.27;;;3.50;;
74833;SDS011;63361;52.384;20.930;2024-03-07T09:19:03;7.10;;;2.65;;
74833;SDS011;63361;52.384;20.930;2024-03-07T09:21:28;8.07;;;3.83;;
74833;SDS011;63361;52.384;20.930;2024-03-07T09:23:54;8.90;;;4.00;;
74833;SDS011;63361;52.384;20.930;2024-03-07T09:26:20;7.50;;;3.63;;
74833;SDS011;63361;52.384;20.930;2024-03-07T09:28:45;7.10;;;3.40;;
74833;SDS011;63361;52.384;20.930;2024-03-07T09:31:11;7.97;;;3.58;;
74833;SDS011;63361;52.384;20.930;2024-03-07T09:33:39;7.40;;;3.28;;
74833;SDS011;63361;52.384;20.930;2024-03-07T09:36:05;9.53;;;4.57;;
74833;SDS011;63361;52.384;20.930;2024-03-07T09:38:31;9.43;;;3.80;;
74833;SDS011;63361;52.384;20.930;2024-03-07T09:40:57;7.82;;;3.80;;
74833;SDS011;63361;52.384;20.930;2024-03-07T09:43:24;9.15;;;4.68;;
74833;SDS011;63361;52.384;20.930;2024-03-07T09:45:53;8.73;;;3.83;;
74833;SDS011;63361;52.384;20.930;2024-03-07T09:48:19;8.57;;;3.60;;
74833;SDS011;63361;52.384;20.930;2024-03-07T09:50:47;7.95;;;3.90;;
74833;SDS011;63361;52.384;20.930;2024-03-07T09:53:17;8.95;;;4.05;;
74833;SDS011;63361;52.384;20.930;2024-03-07T09:55:43;8.50;;;4.20;;
74833;SDS011;63361;52.384;20.930;2024-03-07T09:58:09;9.43;;;3.95;;
74833;SDS011;63361;52.384;20.930;2024-03-07T10:00:38;6.97;;;3.67;;
74833;SDS011;63361;52.384;20.930;2024-03-07T10:03:06;8.05;;;3.58;;
74833;SDS011;63361;52.384;20.930;2024-03-07T10:05:33;9.00;;;4.77;;
74833;SDS011;63361;52.384;20.930;2024-03-07T10:07:59;7.85;;;4.25;;
74833;SDS011;63361;52.384;20.930;2024-03-07T10:10:26;8.10;;;3.38;;
74833;SDS011;63361;52.384;20.930;2024-03-07T10:12:52;8.90;;;3.97;;
74833;SDS011;63361;52.384;20.930;2024-03-07T10:15:26;7.07;;;3.28;;
74833;SDS011;63361;52.384;20.930;2024-03-07T10:18:01;7.57;;;3.28;;
74833;SDS011;63361;52.384;20.930;2024-03-07T10:20:26;11.53;;;3.80;;
74833;SDS011;63361;52.384;20.930;2024-03-07T10:22:52;9.33;;;4.00;;
74833;SDS011;63361;52.384;20.930;2024-03-07T10:25:18;7.93;;;4.22;;
74833;SDS011;63361;52.384;20.930;2024-03-07T10:27:46;6.43;;;3.08;;
74833;SDS011;63361;52.384;20.930;2024-03-07T10:30:15;8.30;;;3.93;;
74833;SDS011;63361;52.384;20.930;2024-03-07T10:32:45;8.07;;;3.28;;
74833;SDS011;63361;52.384;20.930;2024-03-07T10:35:20;11.10;;;4.60;;
74833;SDS011;63361;52.384;20.930;2024-03-07T10:37:47;7.45;;;3.33;;
74833;SDS011;63361;52.384;20.930;2024-03-07T10:40:13;8.27;;;3.43;;
74833;SDS011;63361;52.384;20.930;2024-03-07T10:42:44;6.63;;;3.38;;
74833;SDS011;63361;52.384;20.930;2024-03-07T10:45:16;7.47;;;2.88;;
74833;SDS011;63361;52.384;20.930;2024-03-07T10:47:55;10.32;;;3.88;;
74833;SDS011;63361;52.384;20.930;2024-03-07T10:53:45;9.50;;;4.13;;
74833;SDS011;63361;52.384;20.930;2024-03-07T10:56:47;7.40;;;3.40;;
74833;SDS011;63361;52.384;20.930;2024-03-07T10:59:30;9.02;;;4.05;;
74833;SDS011;63361;52.384;20.930;2024-03-07T11:01:59;8.20;;;3.42;;
74833;SDS011;63361;52.384;20.930;2024-03-07T11:04:45;6.47;;;3.25;;
74833;SDS011;63361;52.384;20.930;2024-03-07T11:07:12;11.37;;;3.87;;
74833;SDS011;63361;52.384;20.930;2024-03-07T11:09:38;6.63;;;3.20;;
74833;SDS011;63361;52.384;20.930;2024-03-07T11:12:07;10.88;;;4.68;;
74833;SDS011;63361;52.384;20.930;2024-03-07T11:14:35;8.23;;;3.90;;
74833;SDS011;63361;52.384;20.930;2024-03-07T11:17:02;9.82;;;4.25;;
74833;SDS011;63361;52.384;20.930;2024-03-07T11:19:31;10.30;;;3.70;;
74833;SDS011;63361;52.384;20.930;2024-03-07T11:22:01;7.07;;;2.97;;
74833;SDS011;63361;52.384;20.930;2024-03-07T11:24:27;10.03;;;4.17;;
74833;SDS011;63361;52.384;20.930;2024-03-07T11:26:58;8.35;;;4.03;;
74833;SDS011;63361;52.384;20.930;2024-03-07T11:29:43;8.15;;;3.60;;
74833;SDS011;63361;52.384;20.930;2024-03-07T11:32:13;6.95;;;3.50;;
74833;SDS011;63361;52.384;20.930;2024-03-07T11:34:39;8.60;;;3.63;;
74833;SDS011;63361;52.384;20.930;2024-03-07T11:37:16;8.07;;;4.45;;
74833;SDS011;63361;52.384;20.930;2024-03-07T11:42:09;6.32;;;3.35;;
74833;SDS011;63361;52.384;20.930;2024-03-07T11:44:44;9.55;;;4.55;;
74833;SDS011;63361;52.384;20.930;2024-03-07T11:47:10;8.90;;;4.20;;
74833;SDS011;63361;52.384;20.930;2024-03-07T11:49:39;11.18;;;4.07;;
74833;SDS011;63361;52.384;20.930;2024-03-07T11:52:05;8.33;;;3.17;;
74833;SDS011;63361;52.384;20.930;2024-03-07T11:54:37;7.72;;;3.88;;
74833;SDS011;63361;52.384;20.930;2024-03-07T11:57:05;10.15;;;3.85;;
74833;SDS011;63361;52.384;20.930;2024-03-07T11:59:38;7.50;;;3.55;;
74833;SDS011;63361;52.384;20.930;2024-03-07T12:02:11;7.00;;;2.93;;
74833;SDS011;63361;52.384;20.930;2024-03-07T12:04:37;7.28;;;3.83;;
74833;SDS011;63361;52.384;20.930;2024-03-07T12:07:02;8.37;;;3.93;;
74833;SDS011;63361;52.384;20.930;2024-03-07T12:09:31;8.02;;;3.40;;
74833;SDS011;63361;52.384;20.930;2024-03-07T12:11:56;7.80;;;3.87;;
74833;SDS011;63361;52.384;20.930;2024-03-07T12:14:24;12.02;;;4.68;;
74833;SDS011;63361;52.384;20.930;2024-03-07T12:16:49;12.30;;;4.90;;
74833;SDS011;63361;52.384;20.930;2024-03-07T12:19:17;7.95;;;3.50;;
74833;SDS011;63361;52.384;20.930;2024-03-07T12:21:44;7.32;;;3.65;;
74833;SDS011;63361;52.384;20.930;2024-03-07T12:24:12;10.20;;;3.97;;
74833;SDS011;63361;52.384;20.930;2024-03-07T12:26:38;10.02;;;4.00;;
74833;SDS011;63361;52.384;20.930;2024-03-07T12:29:07;9.13;;;4.33;;
74833;SDS011;63361;52.384;20.930;2024-03-07T12:31:36;9.17;;;4.13;;
74833;SDS011;63361;52.384;20.930;2024-03-07T12:34:02;9.45;;;4.00;;
74833;SDS011;63361;52.384;20.930;2024-03-07T12:36:29;8.32;;;3.83;;
74833;SDS011;63361;52.384;20.930;2024-03-07T12:38:59;7.47;;;3.45;;
74833;SDS011;63361;52.384;20.930;2024-03-07T12:41:49;7.05;;;3.30;;
74833;SDS011;63361;52.384;20.930;2024-03-07T12:44:17;9.30;;;3.77;;
74833;SDS011;63361;52.384;20.930;2024-03-07T12:46:45;6.25;;;3.00;;
74833;SDS011;63361;52.384;20.930;2024-03-07T12:49:18;6.93;;;3.22;;
74833;SDS011;63361;52.384;20.930;2024-03-07T12:51:44;7.97;;;3.50;;
74833;SDS011;63361;52.384;20.930;2024-03-07T12:54:09;11.43;;;4.00;;
74833;SDS011;63361;52.384;20.930;2024-03-07T12:56:35;7.30;;;3.13;;
74833;SDS011;63361;52.384;20.930;2024-03-07T12:59:02;8.45;;;4.00;;
74833;SDS011;63361;52.384;20.930;2024-03-07T13:01:28;7.57;;;3.90;;
74833;SDS011;63361;52.384;20.930;2024-03-07T13:03:55;8.27;;;4.20;;
74833;SDS011;63361;52.384;20.930;2024-03-07T13:06:21;8.80;;;4.20;;
74833;SDS011;63361;52.384;20.930;2024-03-07T13:08:54;8.70;;;3.90;;
74833;SDS011;63361;52.384;20.930;2024-03-07T13:11:21;10.15;;;4.10;;
74833;SDS011;63361;52.384;20.930;2024-03-07T13:13:47;10.23;;;3.60;;
74833;SDS011;63361;52.384;20.930;2024-03-07T13:16:13;8.93;;;4.60;;
74833;SDS011;63361;52.384;20.930;2024-03-07T13:18:38;8.80;;;3.77;;
74833;SDS011;63361;52.384;20.930;2024-03-07T13:21:04;9.38;;;4.15;;
74833;SDS011;63361;52.384;20.930;2024-03-07T13:23:31;8.57;;;4.20;;
74833;SDS011;63361;52.384;20.930;2024-03-07T13:25:57;11.43;;;4.00;;
74833;SDS011;63361;52.384;20.930;2024-03-07T13:28:23;11.30;;;4.95;;
74833;SDS011;63361;52.384;20.930;2024-03-07T13:30:50;8.20;;;4.05;;
74833;SDS011;63361;52.384;20.930;2024-03-07T13:33:19;9.27;;;4.18;;
74833;SDS011;63361;52.384;20.930;2024-03-07T13:35:45;14.23;;;4.70;;
74833;SDS011;63361;52.384;20.930;2024-03-07T13:38:10;8.30;;;4.33;;
74833;SDS011;63361;52.384;20.930;2024-03-07T13:40:36;13.93;;;4.70;;
74833;SDS011;63361;52.384;20.930;2024-03-07T13:43:03;9.03;;;4.60;;
74833;SDS011;63361;52.384;20.930;2024-03-07T13:45:30;8.77;;;4.38;;
74833;SDS011;63361;52.384;20.930;2024-03-07T13:47:57;11.63;;;4.30;;
74833;SDS011;63361;52.384;20.930;2024-03-07T13:50:27;8.57;;;4.18;;
74833;SDS011;63361;52.384;20.930;2024-03-07T13:52:53;12.60;;;5.07;;
74833;SDS011;63361;52.384;20.930;2024-03-07T13:55:39;11.57;;;5.33;;
74833;SDS011;63361;52.384;20.930;2024-03-07T13:58:15;10.95;;;4.90;;
74833;SDS011;63361;52.384;20.930;2024-03-07T14:06:50;6.38;;;3.33;;
74833;SDS011;63361;52.384;20.930;2024-03-07T14:12:45;9.88;;;4.55;;
74833;SDS011;63361;52.384;20.930;2024-03-07T14:15:45;8.65;;;4.53;;
74833;SDS011;63361;52.384;20.930;2024-03-07T14:27:35;9.82;;;4.20;;
74833;SDS011;63361;52.384;20.930;2024-03-07T14:32:47;8.57;;;4.28;;
74833;SDS011;63361;52.384;20.930;2024-03-07T14:38:25;12.00;;;3.77;;
74833;SDS011;63361;52.384;20.930;2024-03-07T14:40:52;8.75;;;4.25;;
74833;SDS011;63361;52.384;20.930;2024-03-07T14:43:19;7.53;;;4.20;;
74833;SDS011;63361;52.384;20.930;2024-03-07T14:45:45;9.88;;;4.57;;
74833;SDS011;63361;52.384;20.930;2024-03-07T14:48:12;8.73;;;4.20;;
74833;SDS011;63361;52.384;20.930;2024-03-07T14:50:41;9.90;;;4.60;;
74833;SDS011;63361;52.384;20.930;2024-03-07T14:53:10;8.90;;;4.35;;
74833;SDS011;63361;52.384;20.930;2024-03-07T14:55:37;10.63;;;4.00;;